createdAt,value
2023-04-22T00:00:36.788Z,11.00
2023-04-22T00:03:16.836Z,10.95
2023-04-22T00:05:44.985Z,10.91
2023-04-22T00:08:12.841Z,10.87
2023-04-22T00:10:40.649Z,10.84
2023-04-22T00:13:08.420Z,10.81
2023-04-22T00:15:36.584Z,10.77
2023-04-22T00:18:04.640Z,10.75
2023-04-22T00:20:33.079Z,10.71
2023-04-22T00:23:00.943Z,10.69
2023-04-22T00:25:28.694Z,10.66
2023-04-22T00:27:56.381Z,10.64
2023-04-22T00:30:24.234Z,10.61
2023-04-22T00:32:53.304Z,10.58
2023-04-22T00:35:21.361Z,10.54
2023-04-22T00:37:49.412Z,10.51
2023-04-22T00:40:17.187Z,10.46
2023-04-22T00:42:45.015Z,10.44
2023-04-22T00:45:15.653Z,10.43
2023-04-22T00:47:45.684Z,10.41
2023-04-22T00:50:13.612Z,10.41
2023-04-22T00:52:41.590Z,10.41
2023-04-22T00:55:09.941Z,10.40
2023-04-22T00:57:38.636Z,10.38
2023-04-22T01:00:07.460Z,10.37
2023-04-22T01:02:37.311Z,10.36
2023-04-22T01:05:06.162Z,10.33
2023-04-22T01:07:34.368Z,10.31
2023-04-22T01:10:05.581Z,10.30
2023-04-22T01:12:33.439Z,10.26
2023-04-22T01:15:04.511Z,10.21
2023-04-22T01:17:33.902Z,10.16
2023-04-22T01:20:05.481Z,10.13
2023-04-22T01:22:37.202Z,10.08
2023-04-22T01:25:05.181Z,10.05
2023-04-22T01:27:33.100Z,10.02
2023-04-22T01:30:01.105Z,9.98
2023-04-22T01:32:30.871Z,9.94
2023-04-22T01:34:59.532Z,9.88
2023-04-22T01:37:27.295Z,9.85
2023-04-22T01:39:55.294Z,9.83
2023-04-22T01:42:23.207Z,9.80
2023-04-22T01:44:50.906Z,9.78
2023-04-22T01:47:18.774Z,9.76
2023-04-22T01:49:46.652Z,9.74
2023-04-22T01:52:14.612Z,9.72
2023-04-22T01:54:42.352Z,9.68
2023-04-22T01:57:14.166Z,9.63
2023-04-22T01:59:42.344Z,9.57
2023-04-22T02:02:10.626Z,9.52
2023-04-22T02:04:38.668Z,9.48
2023-04-22T02:07:06.814Z,9.44
2023-04-22T02:09:34.970Z,9.41
2023-04-22T02:12:02.785Z,9.36
2023-04-22T02:14:30.704Z,9.31
2023-04-22T02:17:04.026Z,9.28
2023-04-22T02:19:31.850Z,9.24
2023-04-22T02:22:00.281Z,9.23
2023-04-22T02:24:28.109Z,9.19
2023-04-22T02:26:56.082Z,9.14
2023-04-22T02:29:24.321Z,9.08
2023-04-22T02:31:52.102Z,9.02
2023-04-22T02:34:20.220Z,8.97
2023-04-22T02:36:47.972Z,8.91
2023-04-22T02:39:16.360Z,8.85
2023-04-22T02:41:44.429Z,8.78
2023-04-22T02:44:12.898Z,8.75
2023-04-22T02:46:40.641Z,8.71
2023-04-22T02:49:08.375Z,8.62
2023-04-22T02:51:38.378Z,8.54
2023-04-22T02:54:06.181Z,8.49
2023-04-22T02:56:34.023Z,8.45
2023-04-22T02:59:01.983Z,8.41
2023-04-22T03:01:30.062Z,8.40
2023-04-22T03:04:00.191Z,8.39
2023-04-22T03:06:28.755Z,8.40
2023-04-22T03:08:57.608Z,8.39
2023-04-22T03:11:25.755Z,8.39
2023-04-22T03:13:53.574Z,8.39
2023-04-22T03:16:23.771Z,8.40
2023-04-22T03:18:52.670Z,8.39
2023-04-22T03:21:20.514Z,8.38
2023-04-22T03:23:48.312Z,8.36
2023-04-22T03:26:16.605Z,8.33
2023-04-22T03:28:44.705Z,8.32
2023-04-22T03:31:12.738Z,8.30
2023-04-22T03:33:40.786Z,8.28
2023-04-22T03:36:15.830Z,8.27
2023-04-22T03:38:44.219Z,8.26
2023-04-22T03:41:12.264Z,8.25
2023-04-22T03:43:42.671Z,8.23
2023-04-22T03:46:11.334Z,8.21
2023-04-22T03:48:46.908Z,8.20
2023-04-22T03:51:26.972Z,8.20
2023-04-22T03:53:55.654Z,8.20
2023-04-22T03:56:25.161Z,8.22
2023-04-22T03:58:54.791Z,8.22
2023-04-22T04:01:23.711Z,8.23
2023-04-22T04:03:53.707Z,8.24
2023-04-22T04:06:22.646Z,8.24
2023-04-22T04:08:50.969Z,8.24
2023-04-22T04:11:18.836Z,8.23
2023-04-22T04:13:50.044Z,8.23
2023-04-22T04:16:21.390Z,8.24
2023-04-22T04:18:53.766Z,8.25
2023-04-22T04:21:22.699Z,8.27
2023-04-22T04:23:52.580Z,8.28
2023-04-22T04:26:25.142Z,8.29
2023-04-22T04:28:56.143Z,8.31
2023-04-22T04:31:25.021Z,8.34
2023-04-22T04:33:54.271Z,8.36
2023-04-22T04:36:21.979Z,8.39
2023-04-22T04:38:52.460Z,8.43
2023-04-22T04:41:23.429Z,8.47
2023-04-22T04:43:51.885Z,8.51
2023-04-22T04:46:29.598Z,8.57
2023-04-22T04:48:58.754Z,8.64
2023-04-22T04:51:27.207Z,8.73
2023-04-22T04:53:58.527Z,8.81
2023-04-22T04:56:28.131Z,8.89
2023-04-22T04:58:56.434Z,8.98
2023-04-22T05:01:26.620Z,9.08
2023-04-22T05:03:55.432Z,9.18
2023-04-22T05:06:23.453Z,9.29
2023-04-22T05:08:55.793Z,9.40
2023-04-22T05:11:24.592Z,9.50
2023-04-22T05:13:52.798Z,9.62
2023-04-22T05:16:26.070Z,9.74
2023-04-22T05:18:54.251Z,9.84
2023-04-22T05:21:22.106Z,9.96
2023-04-22T05:23:50.773Z,10.07
2023-04-22T05:26:18.627Z,10.19
2023-04-22T05:28:47.291Z,10.32
2023-04-22T05:31:17.652Z,10.46
2023-04-22T05:33:45.702Z,10.57
2023-04-22T05:36:13.578Z,10.72
2023-04-22T05:38:42.069Z,10.88
2023-04-22T05:41:09.824Z,11.04
2023-04-22T05:43:37.546Z,11.20
2023-04-22T05:46:12.070Z,11.36
2023-04-22T05:48:40.768Z,11.51
2023-04-22T05:51:11.101Z,11.66
2023-04-22T05:53:39.152Z,11.80
2023-04-22T05:56:06.967Z,11.94
2023-04-22T05:58:35.320Z,12.11
2023-04-22T06:01:10.272Z,12.27
2023-04-22T06:03:57.903Z,12.45
2023-04-22T06:06:27.620Z,12.61
2023-04-22T06:08:55.573Z,12.76
2023-04-22T06:11:23.410Z,12.91
2023-04-22T06:13:51.314Z,13.04
2023-04-22T06:16:19.437Z,13.18
2023-04-22T06:18:47.387Z,13.31
2023-04-22T06:21:15.670Z,13.43
2023-04-22T06:23:43.493Z,13.56
2023-04-22T06:26:11.966Z,13.69
2023-04-22T06:28:40.227Z,13.84
2023-04-22T06:31:12.404Z,13.96
2023-04-22T06:33:40.724Z,14.09
2023-04-22T06:36:08.978Z,14.22
2023-04-22T06:38:37.245Z,14.34
2023-04-22T06:41:23.625Z,14.45
2023-04-22T06:43:53.470Z,14.59
2023-04-22T06:46:39.946Z,14.72
2023-04-22T06:49:42.047Z,14.84
2023-04-22T06:52:22.782Z,14.95
2023-04-22T06:54:53.346Z,15.04
2023-04-22T06:57:21.717Z,15.16
2023-04-22T06:59:50.153Z,15.28
2023-04-22T07:02:21.488Z,15.39
2023-04-22T07:04:49.325Z,15.49
2023-04-22T07:07:17.217Z,15.61
2023-04-22T07:09:46.267Z,15.69
2023-04-22T07:12:14.063Z,15.78
2023-04-22T07:14:45.750Z,15.89
2023-04-22T07:17:13.558Z,16.02
2023-04-22T07:19:41.821Z,16.15
2023-04-22T07:22:09.907Z,16.31
2023-04-22T07:24:38.633Z,16.46
2023-04-22T07:27:07.072Z,16.59
2023-04-22T07:29:35.607Z,16.70
2023-04-22T07:32:03.406Z,16.80
2023-04-22T07:34:31.228Z,16.94
2023-04-22T07:36:59.204Z,17.07
2023-04-22T07:39:27.458Z,17.19
2023-04-22T07:41:57.540Z,17.31
2023-04-22T07:44:25.702Z,17.41
2023-04-22T07:46:54.119Z,17.51
2023-04-22T07:49:22.028Z,17.66
2023-04-22T07:51:51.648Z,17.81
2023-04-22T07:54:19.434Z,17.98
2023-04-22T07:56:47.200Z,18.12
2023-04-22T07:59:14.957Z,18.28
2023-04-22T13:02:43.907Z,27.53
2023-04-22T13:05:13.045Z,27.62
2023-04-22T13:07:45.406Z,27.77
2023-04-22T13:10:17.146Z,27.81
2023-04-22T13:15:56.754Z,27.72
2023-04-22T13:18:33.656Z,27.74
2023-04-22T13:21:01.874Z,27.90
2023-04-22T13:23:47.478Z,28.09
2023-04-22T13:26:21.563Z,28.27
2023-04-22T13:28:49.798Z,28.48
2023-04-22T13:31:25.548Z,28.67
2023-04-22T13:49:06.029Z,29.90
2023-04-22T13:51:34.340Z,30.20
2023-04-22T13:54:05.675Z,30.40
2023-04-22T14:06:16.199Z,31.02
2023-04-22T14:09:19.770Z,31.25
2023-04-22T14:12:38.380Z,31.57
2023-04-22T14:15:33.721Z,32.09
2023-04-22T14:18:02.178Z,32.48
2023-04-22T14:20:30.618Z,32.80
2023-04-22T14:23:25.152Z,32.92
2023-04-22T14:25:56.139Z,33.10
2023-04-22T14:28:24.793Z,33.26
2023-04-22T14:30:59.929Z,33.41
2023-04-22T14:33:58.004Z,33.69
2023-04-22T14:36:51.905Z,33.95
2023-04-22T14:39:20.383Z,34.28
2023-04-22T14:41:48.807Z,34.52
2023-04-22T14:44:18.436Z,34.89
2023-04-22T14:46:48.897Z,35.31
2023-04-22T14:49:16.936Z,35.77
2023-04-22T14:51:45.176Z,36.18
2023-04-22T14:54:15.377Z,36.66
2023-04-22T14:56:43.549Z,37.16
2023-04-22T14:59:11.564Z,37.70
2023-04-22T15:01:43.230Z,38.12
2023-04-22T15:04:13.751Z,38.24
2023-04-22T15:06:42.913Z,38.44
2023-04-22T15:09:12.121Z,38.81
2023-04-22T15:11:41.148Z,39.28
2023-04-22T15:14:09.394Z,39.75
2023-04-22T15:16:37.605Z,40.10
2023-04-22T15:19:06.230Z,40.48
2023-04-22T15:21:34.230Z,40.80
2023-04-22T15:24:02.330Z,40.93
2023-04-22T15:29:49.530Z,41.69
2023-04-22T15:32:28.313Z,42.33
2023-04-22T15:34:58.863Z,42.80
2023-04-22T15:37:27.337Z,43.04
2023-04-22T15:40:20.253Z,43.36
2023-04-22T15:42:51.170Z,43.72
2023-04-22T15:45:38.447Z,43.91
2023-04-22T15:52:38.260Z,44.17
2023-04-22T15:55:19.555Z,44.51
2023-04-22T15:58:19.466Z,44.77
2023-04-22T16:00:49.254Z,44.95
2023-04-22T16:04:02.719Z,45.11
2023-04-22T16:06:39.011Z,45.49
2023-04-22T16:09:14.320Z,45.63
2023-04-22T16:12:28.011Z,45.78
2023-04-22T16:15:19.427Z,46.10
2023-04-22T16:18:17.467Z,46.37
2023-04-22T16:21:11.291Z,46.50
2023-04-22T16:24:05.256Z,46.49
2023-04-22T16:27:49.005Z,46.84
2023-04-22T16:31:21.151Z,47.04
2023-04-22T16:34:26.001Z,47.04
2023-04-22T16:38:02.578Z,47.01
2023-04-22T17:02:33.158Z,46.39
2023-04-22T17:06:00.500Z,46.10
2023-04-22T17:08:53.534Z,44.39
2023-04-22T17:12:22.062Z,42.11
2023-04-22T17:16:26.991Z,38.90
2023-04-22T17:22:23.412Z,33.90
2023-04-22T17:24:53.738Z,32.42
2023-04-22T17:38:41.753Z,26.86
2023-04-22T17:42:07.495Z,26.22
2023-04-22T17:49:53.408Z,24.89
2023-04-22T17:52:22.580Z,24.51
2023-04-22T17:54:55.207Z,24.16
2023-04-22T17:57:38.833Z,23.81
2023-04-22T18:00:27.776Z,23.46
2023-04-22T18:03:22.755Z,23.12
2023-04-22T18:05:59.271Z,22.81
2023-04-22T18:08:27.657Z,22.57
2023-04-22T18:10:58.155Z,22.34
2023-04-22T18:13:26.641Z,22.13
2023-04-22T18:15:54.806Z,21.93
2023-04-22T18:18:25.488Z,21.74
2023-04-22T18:20:53.749Z,21.56
2023-04-22T18:23:25.507Z,21.37
2023-04-22T18:25:54.667Z,21.19
2023-04-22T18:28:32.639Z,21.00
2023-04-22T18:32:00.829Z,20.79
2023-04-22T18:36:22.593Z,20.53
2023-04-22T18:49:42.240Z,19.58
2023-04-22T18:52:17.920Z,19.55
2023-04-22T18:54:46.461Z,19.48
2023-04-22T18:57:14.643Z,19.41
2023-04-22T18:59:42.924Z,19.33
2023-04-22T19:02:14.450Z,19.24
2023-04-22T19:04:43.703Z,19.15
2023-04-22T19:07:12.167Z,19.06
2023-04-22T19:09:40.358Z,18.97
2023-04-22T19:12:15.709Z,18.88
2023-04-22T19:14:44.192Z,18.78
2023-04-22T19:17:12.778Z,18.70
2023-04-22T19:19:41.551Z,18.62
2023-04-22T19:22:42.588Z,18.54
2023-04-22T19:25:14.452Z,18.44
2023-04-22T19:27:50.077Z,18.36
2023-04-22T19:34:29.026Z,18.16
2023-04-22T19:37:27.317Z,18.06
2023-04-22T19:43:57.062Z,17.83
2023-04-22T19:47:00.238Z,17.75
2023-04-22T19:54:22.193Z,17.45
2023-04-22T19:57:10.847Z,17.33
2023-04-22T20:00:06.039Z,17.23
2023-04-22T20:03:18.796Z,17.12
2023-04-22T20:07:02.665Z,17.00
2023-04-22T20:09:54.019Z,16.87
2023-04-22T20:12:34.202Z,16.78
2023-04-22T20:15:05.668Z,16.69
2023-04-22T20:17:38.757Z,16.58
2023-04-22T20:20:12.877Z,16.50
2023-04-22T20:22:42.637Z,16.41
2023-04-22T20:25:13.957Z,16.33
2023-04-22T20:27:43.328Z,16.23
2023-04-22T20:37:12.464Z,15.98
2023-04-22T20:40:04.638Z,15.81
2023-04-22T20:42:33.155Z,15.72
2023-04-22T20:45:01.233Z,15.65
2023-04-22T20:47:29.330Z,15.57
2023-04-22T20:49:57.239Z,15.48
2023-04-22T20:52:25.160Z,15.39
2023-04-22T20:54:55.268Z,15.32
2023-04-22T20:57:23.786Z,15.24
2023-04-22T20:59:51.942Z,15.17
2023-04-22T21:02:20.581Z,15.09
2023-04-22T21:04:49.106Z,15.02
2023-04-22T21:07:17.911Z,14.96
2023-04-22T21:09:46.393Z,14.90
2023-04-22T21:12:17.300Z,14.84
2023-04-22T21:14:45.834Z,14.76
2023-04-22T21:17:21.416Z,14.69
2023-04-22T21:19:50.332Z,14.62
2023-04-22T21:22:22.026Z,14.56
2023-04-22T21:24:50.860Z,14.50
2023-04-22T21:27:19.820Z,14.43
2023-04-22T21:29:48.670Z,14.37
2023-04-22T21:32:17.364Z,14.31
2023-04-22T21:34:45.568Z,14.26
2023-04-22T21:37:13.584Z,14.21
2023-04-22T21:39:41.445Z,14.17
2023-04-22T21:42:09.307Z,14.13
2023-04-22T21:44:37.956Z,14.09
2023-04-22T21:47:06.665Z,14.06
2023-04-22T21:49:34.514Z,14.03
2023-04-22T21:52:02.265Z,14.02
2023-04-22T21:54:30.073Z,14.00
2023-04-22T21:56:57.834Z,13.98
2023-04-22T21:59:25.662Z,13.95
2023-04-22T22:01:53.405Z,13.92
2023-04-22T22:04:21.672Z,13.87
2023-04-22T22:06:49.580Z,13.82
2023-04-22T22:09:17.315Z,13.77
2023-04-22T22:11:45.056Z,13.73
2023-04-22T22:14:12.819Z,13.70
2023-04-22T22:16:40.601Z,13.67
2023-04-22T22:19:10.950Z,13.66
2023-04-22T22:21:38.709Z,13.64
2023-04-22T22:24:09.279Z,13.63
2023-04-22T22:26:37.182Z,13.63
2023-04-22T22:29:04.914Z,13.61
2023-04-22T22:31:33.136Z,13.61
2023-04-22T22:34:00.875Z,13.60
2023-04-22T22:36:28.634Z,13.58
2023-04-22T22:38:56.414Z,13.58
2023-04-22T22:41:24.415Z,13.56
2023-04-22T22:43:52.184Z,13.53
2023-04-22T22:46:20.017Z,13.53
2023-04-22T22:48:48.339Z,13.53
2023-04-22T22:51:18.505Z,13.52
2023-04-22T22:53:46.633Z,13.51
2023-04-22T22:56:15.520Z,13.50
2023-04-22T22:58:43.364Z,13.47
2023-04-22T23:01:11.175Z,13.46
2023-04-22T23:03:39.253Z,13.45
2023-04-22T23:06:07.473Z,13.45
2023-04-22T23:08:35.453Z,13.43
2023-04-22T23:11:03.546Z,13.42
2023-04-22T23:13:31.237Z,13.40
2023-04-22T23:15:59.005Z,13.39
2023-04-22T23:18:27.059Z,13.38
2023-04-22T23:20:54.904Z,13.37
2023-04-22T23:23:23.243Z,13.37
2023-04-22T23:25:51.335Z,13.36
2023-04-22T23:28:19.447Z,13.34
2023-04-22T23:30:49.381Z,13.31
2023-04-22T23:33:19.600Z,13.28
2023-04-22T23:35:47.476Z,13.25
2023-04-22T23:38:15.191Z,13.22
2023-04-22T23:40:42.990Z,13.19
2023-04-22T23:43:11.868Z,13.16
2023-04-22T23:45:39.592Z,13.13
2023-04-22T23:48:08.777Z,13.12
2023-04-22T23:50:36.545Z,13.10
2023-04-22T23:53:04.260Z,13.07
2023-04-22T23:55:32.470Z,13.04
2023-04-22T23:58:00.429Z,13.00
